Time;durP1;ratioP1;P1;durP2;ratioP2;P2;SDS_P1;SDS_P2;PMS_P1;PMS_P2;Temp;Humidity;BMP_temperature;BMP_pressure;BME280_temperature;BME280_humidity;BME280_pressure;Samples;Min_cycle;Max_cycle;Signal;HPM_P1;HPM_P2
2023/06/27 00:01:09;;;;;;;4.07;2.20;;;18.40;68.30;;;;;;5095113;28;20273;-72
2023/06/27 00:03:36;;;;;;;8.68;3.03;;;18.30;68.30;;;;;;5094973;28;20273;-72
2023/06/27 00:06:04;;;;;;;5.43;2.40;;;18.40;68.50;;;;;;5094570;28;20239;-72
2023/06/27 00:08:32;;;;;;;4.72;2.35;;;18.30;68.50;;;;;;5094805;28;20677;-72
2023/06/27 00:10:59;;;;;;;5.22;2.30;;;18.30;68.50;;;;;;5095017;28;20192;-72
2023/06/27 00:13:25;;;;;;;5.82;2.50;;;18.20;68.70;;;;;;5075276;28;20634;-71
2023/06/27 00:15:53;;;;;;;2.92;2.28;;;18.20;69.10;;;;;;5074626;28;20201;-72
2023/06/27 00:18:21;;;;;;;6.75;2.28;;;18.20;69.10;;;;;;5074449;28;20726;-72
2023/06/27 00:20:48;;;;;;;6.65;2.35;;;18.20;69.40;;;;;;5074298;28;20200;-72
2023/06/27 00:23:18;;;;;;;4.32;2.28;;;18.20;69.50;;;;;;5074231;28;20259;-73
2023/06/27 00:25:47;;;;;;;6.80;2.42;;;18.20;69.60;;;;;;5074148;28;20733;-73
2023/06/27 00:28:14;;;;;;;7.18;2.40;;;18.20;69.70;;;;;;5074323;28;20193;-73
2023/06/27 00:30:40;;;;;;;3.78;2.15;;;18.10;70.70;;;;;;5073912;28;20657;-73
2023/06/27 00:33:09;;;;;;;6.45;2.15;;;18.10;70.90;;;;;;5074106;28;20208;-73
2023/06/27 00:35:35;;;;;;;3.90;2.40;;;18.00;70.60;;;;;;5074094;28;20205;-73
2023/06/27 00:38:03;;;;;;;6.97;2.33;;;18.00;70.80;;;;;;5074306;28;20204;-71
2023/06/27 00:40:29;;;;;;;3.90;2.03;;;18.00;71.30;;;;;;5074069;28;20270;-71
2023/06/27 00:42:57;;;;;;;5.00;2.10;;;17.90;70.90;;;;;;5073988;28;20204;-71
2023/06/27 00:45:24;;;;;;;4.00;2.75;;;18.00;71.40;;;;;;5073908;28;20221;-71
2023/06/27 00:47:52;;;;;;;4.75;2.47;;;17.90;71.00;;;;;;5073653;28;20725;-72
2023/06/27 00:50:20;;;;;;;3.78;2.05;;;18.00;71.00;;;;;;5073930;28;20255;-72
2023/06/27 00:52:47;;;;;;;4.55;2.03;;;17.80;70.00;;;;;;5073929;28;20201;-71
2023/06/27 00:55:14;;;;;;;6.57;2.80;;;17.90;70.10;;;;;;5073726;28;20237;-72
2023/06/27 00:57:41;;;;;;;3.33;1.92;;;17.90;70.00;;;;;;5073706;28;20196;-72
2023/06/27 01:00:11;;;;;;;3.53;2.30;;;17.90;69.80;;;;;;5073077;28;20231;-71
2023/06/27 01:02:38;;;;;;;2.90;2.00;;;18.00;69.80;;;;;;5073151;28;20204;-72
2023/06/27 01:05:06;;;;;;;5.53;2.35;;;18.00;69.70;;;;;;5073642;28;20327;-72
2023/06/27 01:07:38;;;;;;;6.47;2.40;;;17.90;69.70;;;;;;5073544;28;20197;-72
2023/06/27 01:10:12;;;;;;;4.18;2.20;;;17.90;70.10;;;;;;5073666;28;20258;-72
2023/06/27 01:12:46;;;;;;;5.20;2.42;;;18.00;70.10;;;;;;5073264;28;20690;-72
2023/06/27 01:15:14;;;;;;;3.55;2.00;;;17.90;70.50;;;;;;5073258;28;20652;-72
2023/06/27 01:17:41;;;;;;;3.55;2.35;;;17.80;70.80;;;;;;5073435;28;20239;-72
2023/06/27 01:20:09;;;;;;;4.05;2.30;;;17.80;71.00;;;;;;5073361;28;20201;-71
2023/06/27 01:22:39;;;;;;;8.65;2.40;;;17.80;72.00;;;;;;5073637;28;20246;-72
2023/06/27 01:25:08;;;;;;;4.65;2.42;;;17.70;72.10;;;;;;5073092;28;20225;-71
2023/06/27 01:27:35;;;;;;;7.97;2.47;;;17.60;72.50;;;;;;5073084;28;20196;-72
2023/06/27 01:30:02;;;;;;;4.43;2.28;;;17.50;73.20;;;;;;5073286;28;20345;-72
2023/06/27 01:32:41;;;;;;;4.80;2.20;;;17.50;73.90;;;;;;5073148;28;20223;-71
2023/06/27 01:35:14;;;;;;;6.47;2.50;;;17.40;73.80;;;;;;5073086;28;20201;-72
2023/06/27 01:37:47;;;;;;;4.30;2.30;;;17.40;74.60;;;;;;5073050;28;20254;-72
2023/06/27 01:40:19;;;;;;;6.18;2.30;;;17.40;75.00;;;;;;5073223;28;20204;-72
2023/06/27 01:42:50;;;;;;;7.03;2.50;;;17.40;75.10;;;;;;5073008;28;20262;-72
2023/06/27 01:45:19;;;;;;;3.05;1.98;;;17.30;75.30;;;;;;5072940;28;20229;-72
2023/06/27 01:47:46;;;;;;;5.80;2.42;;;17.30;75.70;;;;;;5073094;28;20209;-72
2023/06/27 01:50:13;;;;;;;5.20;2.25;;;17.10;76.00;;;;;;5072802;28;20201;-73
2023/06/27 01:52:40;;;;;;;3.28;2.22;;;17.20;76.10;;;;;;5072681;28;20255;-72
2023/06/27 01:55:08;;;;;;;4.68;2.30;;;17.20;76.10;;;;;;5072608;28;20229;-72
2023/06/27 01:57:36;;;;;;;5.03;2.08;;;17.20;76.10;;;;;;5072613;28;20726;-72
2023/06/27 02:00:04;;;;;;;4.85;2.40;;;17.10;76.80;;;;;;5073048;28;20198;-72
2023/06/27 02:02:31;;;;;;;3.67;2.30;;;17.00;77.60;;;;;;5072690;28;20201;-72
2023/06/27 02:04:57;;;;;;;3.03;2.15;;;16.90;79.20;;;;;;5072495;28;20266;-72
2023/06/27 02:07:24;;;;;;;6.63;2.20;;;16.90;79.60;;;;;;5072882;28;20270;-72
2023/06/27 02:09:51;;;;;;;4.68;2.15;;;16.90;80.60;;;;;;5072755;28;20201;-72
2023/06/27 02:12:17;;;;;;;3.58;2.20;;;16.80;80.90;;;;;;5073867;28;20193;-72
2023/06/27 02:14:45;;;;;;;4.35;2.50;;;16.70;82.40;;;;;;5076751;28;20273;-72
2023/06/27 02:17:12;;;;;;;5.45;2.40;;;16.50;84.10;;;;;;5076725;28;20193;-72
2023/06/27 02:19:40;;;;;;;4.57;2.65;;;16.40;87.00;;;;;;5076644;28;20193;-72
2023/06/27 02:22:06;;;;;;;4.77;2.90;;;16.30;87.90;;;;;;5076784;28;20197;-72
2023/06/27 02:24:33;;;;;;;4.88;2.25;;;16.30;89.00;;;;;;5076651;28;20627;-72
2023/06/27 02:27:00;;;;;;;6.63;2.92;;;16.20;90.10;;;;;;5076628;28;20200;-72
2023/06/27 02:29:26;;;;;;;4.57;2.20;;;16.10;90.30;;;;;;5076584;28;20204;-72
2023/06/27 02:31:54;;;;;;;4.43;2.63;;;16.10;90.60;;;;;;5076512;28;20251;-72
2023/06/27 02:34:21;;;;;;;3.45;2.85;;;16.10;91.00;;;;;;5076300;28;20205;-72
2023/06/27 02:36:47;;;;;;;4.97;2.38;;;16.10;91.50;;;;;;5076587;28;20687;-72
2023/06/27 02:39:14;;;;;;;7.03;2.90;;;15.90;92.30;;;;;;5076478;28;20197;-72
2023/06/27 02:41:41;;;;;;;4.60;2.75;;;15.90;92.90;;;;;;5076354;28;20193;-72
2023/06/27 02:44:07;;;;;;;5.30;2.60;;;15.80;93.60;;;;;;5076115;28;20676;-72
2023/06/27 02:46:34;;;;;;;7.72;3.03;;;15.70;94.30;;;;;;5076179;28;20243;-71
2023/06/27 02:49:02;;;;;;;6.77;2.60;;;15.70;95.20;;;;;;5076074;28;20661;-72
2023/06/27 02:51:28;;;;;;;5.18;2.75;;;15.60;95.20;;;;;;5076197;28;20345;-72
2023/06/27 02:53:56;;;;;;;3.17;2.47;;;15.60;95.80;;;;;;5076040;28;20657;-72
2023/06/27 02:56:23;;;;;;;4.07;2.50;;;15.60;96.10;;;;;;5075697;28;20233;-71
2023/06/27 02:58:49;;;;;;;5.90;2.40;;;15.50;96.60;;;;;;5075823;28;20629;-72
2023/06/27 03:01:16;;;;;;;4.80;2.60;;;15.50;97.30;;;;;;5075890;28;20197;-71
2023/06/27 03:03:43;;;;;;;6.07;2.53;;;15.50;97.30;;;;;;5075818;28;20192;-71
2023/06/27 03:06:11;;;;;;;3.77;2.57;;;15.40;97.70;;;;;;5075834;28;20221;-72
2023/06/27 03:08:38;;;;;;;5.20;2.60;;;15.40;98.70;;;;;;5075750;28;20196;-72
2023/06/27 03:11:05;;;;;;;5.63;2.57;;;15.30;98.90;;;;;;5075809;28;20254;-72
2023/06/27 03:13:32;;;;;;;4.00;2.60;;;15.20;99.50;;;;;;5075644;28;20255;-72
2023/06/27 03:15:58;;;;;;;4.53;2.90;;;15.40;99.90;;;;;;5075548;28;20197;-72
2023/06/27 03:18:25;;;;;;;4.43;2.40;;;15.50;99.90;;;;;;5075751;28;20197;-72
2023/06/27 03:20:51;;;;;;;4.30;2.63;;;15.30;99.40;;;;;;5075631;28;20193;-72
2023/06/27 03:23:19;;;;;;;4.37;2.40;;;15.40;99.90;;;;;;5074861;28;20204;-72
2023/06/27 03:25:46;;;;;;;5.53;2.40;;;15.30;99.90;;;;;;5075186;28;20297;-73
2023/06/27 03:28:12;;;;;;;3.90;2.50;;;15.20;99.90;;;;;;5075463;28;20205;-72
2023/06/27 03:30:43;;;;;;;7.00;2.60;;;15.20;99.90;;;;;;5075367;28;20660;-71
2023/06/27 03:33:09;;;;;;;6.03;2.87;;;15.10;99.90;;;;;;5075514;28;20565;-72
2023/06/27 03:35:36;;;;;;;10.83;2.73;;;15.10;99.90;;;;;;5075229;28;20246;-71
2023/06/27 03:38:03;;;;;;;4.00;2.90;;;15.10;99.90;;;;;;5075310;28;20255;-72
2023/06/27 03:40:31;;;;;;;4.00;2.33;;;15.20;99.90;;;;;;5075175;28;20197;-72
2023/06/27 03:42:57;;;;;;;5.37;2.60;;;15.20;99.90;;;;;;5075023;28;20732;-72
2023/06/27 03:45:24;;;;;;;6.03;2.60;;;15.20;99.90;;;;;;5075149;28;20224;-72
2023/06/27 03:47:51;;;;;;;3.87;2.37;;;15.20;99.90;;;;;;5075188;28;20252;-72
2023/06/27 03:50:17;;;;;;;7.93;2.93;;;15.20;99.90;;;;;;5074818;28;20657;-72
2023/06/27 03:52:44;;;;;;;4.67;2.43;;;15.20;99.90;;;;;;5075058;28;20246;-72
2023/06/27 03:55:11;;;;;;;4.77;2.30;;;15.20;99.90;;;;;;5074942;28;20274;-72
2023/06/27 03:57:39;;;;;;;4.47;2.57;;;15.20;99.90;;;;;;5074895;28;20197;-72
2023/06/27 04:00:10;;;;;;;3.97;2.80;;;15.20;99.90;;;;;;5074927;28;20205;-72
2023/06/27 04:02:37;;;;;;;3.50;2.70;;;15.20;99.90;;;;;;5074910;28;20225;-72
2023/06/27 04:05:04;;;;;;;4.10;2.83;;;15.20;99.90;;;;;;5074641;28;20225;-72
2023/06/27 04:07:30;;;;;;;4.00;2.57;;;15.40;99.90;;;;;;5074664;28;20209;-72
2023/06/27 04:09:57;;;;;;;4.50;2.70;;;15.40;99.90;;;;;;5074368;28;20204;-72
2023/06/27 04:12:23;;;;;;;7.00;2.57;;;15.30;99.90;;;;;;5074326;28;20251;-72
2023/06/27 04:14:51;;;;;;;4.90;2.80;;;15.20;99.90;;;;;;5074416;28;20734;-72
2023/06/27 04:17:18;;;;;;;6.60;2.73;;;15.20;99.90;;;;;;5074526;28;20201;-72
2023/06/27 04:19:44;;;;;;;5.37;2.60;;;15.10;99.90;;;;;;5074475;28;20197;-72
2023/06/27 04:22:11;;;;;;;6.47;2.53;;;15.00;99.90;;;;;;5074542;28;20197;-73
2023/06/27 04:24:38;;;;;;;6.20;2.63;;;15.00;99.90;;;;;;5074049;28;20221;-72
2023/06/27 04:27:05;;;;;;;7.07;2.60;;;15.10;99.90;;;;;;5074247;28;20198;-72
2023/06/27 04:29:31;;;;;;;3.67;2.40;;;15.10;99.90;;;;;;5074188;28;20254;-72
2023/06/27 04:32:00;;;;;;;4.40;2.72;;;15.10;99.90;;;;;;5074111;28;20242;-72
2023/06/27 04:34:26;;;;;;;9.10;3.10;;;15.10;99.90;;;;;;5074072;28;20619;-72
2023/06/27 04:36:53;;;;;;;5.33;2.50;;;15.20;99.90;;;;;;5073957;28;20201;-72
2023/06/27 04:39:20;;;;;;;3.47;2.80;;;15.30;99.90;;;;;;5073759;28;20581;-72
2023/06/27 04:41:46;;;;;;;8.07;2.70;;;15.40;99.90;;;;;;5074065;28;20197;-72
2023/06/27 04:44:13;;;;;;;8.90;3.00;;;15.30;99.90;;;;;;5073820;28;20197;-71
2023/06/27 04:46:40;;;;;;;7.07;2.70;;;15.30;99.90;;;;;;5073619;28;20274;-71
2023/06/27 04:49:07;;;;;;;5.73;2.90;;;15.20;99.90;;;;;;5073980;28;20201;-71
2023/06/27 04:51:34;;;;;;;7.23;3.30;;;15.20;99.90;;;;;;5073748;28;20197;-72
2023/06/27 04:54:01;;;;;;;5.10;2.33;;;15.20;99.90;;;;;;5073733;28;20259;-70
2023/06/27 04:56:27;;;;;;;4.73;2.70;;;15.40;99.90;;;;;;5073270;28;20635;-70
2023/06/27 04:58:54;;;;;;;5.93;3.22;;;15.40;99.90;;;;;;5073515;28;20201;-71
2023/06/27 05:01:20;;;;;;;6.70;2.97;;;15.40;99.90;;;;;;5073476;28;20201;-71
2023/06/27 05:03:47;;;;;;;7.57;2.90;;;15.50;99.90;;;;;;5073448;28;20205;-71
2023/06/27 05:06:15;;;;;;;10.90;3.13;;;15.50;99.90;;;;;;5073345;28;20220;-70
2023/06/27 05:08:42;;;;;;;8.13;3.03;;;15.60;99.90;;;;;;5073575;28;20193;-70
2023/06/27 05:11:09;;;;;;;6.05;3.03;;;15.60;99.90;;;;;;5073596;28;20209;-71
2023/06/27 05:13:35;;;;;;;9.50;3.00;;;15.70;99.90;;;;;;5073472;28;20193;-71
2023/06/27 05:16:02;;;;;;;4.57;3.08;;;15.70;99.90;;;;;;5073141;28;20197;-70
2023/06/27 05:18:28;;;;;;;5.30;2.80;;;15.70;99.90;;;;;;5073027;28;20197;-71
2023/06/27 05:20:56;;;;;;;6.72;2.58;;;15.90;99.90;;;;;;5073027;28;20203;-71
2023/06/27 05:23:23;;;;;;;9.88;3.05;;;16.10;99.90;;;;;;5072890;28;20656;-71
2023/06/27 05:25:51;;;;;;;7.82;2.53;;;16.10;99.90;;;;;;5072927;28;20596;-71
2023/06/27 05:28:18;;;;;;;4.22;2.38;;;16.30;99.90;;;;;;5072795;28;20254;-70
2023/06/27 05:30:45;;;;;;;4.55;2.83;;;16.40;99.90;;;;;;5072962;28;20197;-70
2023/06/27 05:33:11;;;;;;;5.85;2.63;;;16.50;99.90;;;;;;5072966;28;20262;-71
2023/06/27 05:35:38;;;;;;;7.90;2.75;;;16.70;99.90;;;;;;5073308;28;20533;-72
2023/06/27 05:38:05;;;;;;;3.20;2.58;;;16.90;99.90;;;;;;5072933;28;20274;-71
2023/06/27 05:40:33;;;;;;;3.53;2.50;;;16.80;99.90;;;;;;5072903;28;20274;-72
2023/06/27 05:43:00;;;;;;;6.25;2.70;;;16.80;99.90;;;;;;5072740;28;20197;-71
2023/06/27 05:45:26;;;;;;;5.57;2.95;;;16.70;99.90;;;;;;5072514;28;20227;-71
2023/06/27 05:47:53;;;;;;;4.63;2.75;;;16.70;99.90;;;;;;5071927;28;20197;-71
2023/06/27 05:50:20;;;;;;;5.35;2.70;;;16.70;99.90;;;;;;5072773;28;20196;-71
2023/06/27 05:52:46;;;;;;;8.25;2.78;;;16.70;99.90;;;;;;5072690;28;20201;-71
2023/06/27 05:55:13;;;;;;;5.38;2.35;;;16.50;99.90;;;;;;5072516;28;20278;-71
2023/06/27 05:57:41;;;;;;;3.63;2.33;;;16.50;99.90;;;;;;5072563;28;20193;-71
2023/06/27 06:00:10;;;;;;;10.02;2.58;;;16.60;99.90;;;;;;5072538;28;20250;-71
2023/06/27 06:02:38;;;;;;;3.28;2.22;;;16.60;99.90;;;;;;5072246;28;20292;-71
2023/06/27 06:05:05;;;;;;;7.18;2.70;;;16.90;99.90;;;;;;5072231;28;20189;-71
2023/06/27 06:07:32;;;;;;;6.85;2.45;;;17.20;99.90;;;;;;5072667;28;20204;-71
2023/06/27 06:09:59;;;;;;;5.85;2.55;;;17.10;99.90;;;;;;5072438;28;20205;-71
2023/06/27 06:12:25;;;;;;;6.18;2.28;;;17.00;99.90;;;;;;5072585;28;20197;-72
2023/06/27 06:14:53;;;;;;;4.85;2.50;;;17.20;99.90;;;;;;5072560;28;20205;-72
2023/06/27 06:17:20;;;;;;;3.80;2.28;;;17.20;99.90;;;;;;5072533;28;20251;-72
2023/06/27 06:19:46;;;;;;;5.03;2.20;;;17.40;99.90;;;;;;5072765;28;20197;-72
2023/06/27 06:22:13;;;;;;;7.00;2.63;;;17.60;99.90;;;;;;5072491;28;20201;-72
2023/06/27 06:24:40;;;;;;;4.18;2.40;;;17.80;99.10;;;;;;5072488;28;20197;-72
2023/06/27 06:27:07;;;;;;;4.18;2.42;;;17.90;99.20;;;;;;5072387;28;20224;-72
2023/06/27 06:29:34;;;;;;;6.88;2.50;;;17.90;98.50;;;;;;5072383;28;20193;-72
2023/06/27 06:32:02;;;;;;;4.53;2.55;;;18.00;98.10;;;;;;5072445;28;20227;-73
2023/06/27 06:34:28;;;;;;;5.20;2.58;;;18.20;97.10;;;;;;5072543;28;20205;-72
2023/06/27 06:36:55;;;;;;;3.95;2.20;;;18.00;97.10;;;;;;5072217;28;20463;-72
2023/06/27 06:39:22;;;;;;;5.95;2.47;;;18.00;97.00;;;;;;5072374;28;20275;-72
2023/06/27 06:41:49;;;;;;;5.47;2.25;;;18.00;96.90;;;;;;5072029;28;20258;-73
2023/06/27 06:44:15;;;;;;;8.70;2.40;;;18.00;96.70;;;;;;5072110;28;20196;-73
2023/06/27 06:46:43;;;;;;;6.63;2.53;;;18.20;96.70;;;;;;5071990;28;20704;-73
2023/06/27 06:49:11;;;;;;;2.92;1.90;;;18.20;96.40;;;;;;5072301;28;20201;-73
2023/06/27 06:51:38;;;;;;;4.05;2.20;;;18.20;95.70;;;;;;5072279;28;20193;-71
2023/06/27 06:54:04;;;;;;;2.60;1.80;;;18.30;96.00;;;;;;5071771;28;20243;-72
2023/06/27 06:56:31;;;;;;;4.00;2.25;;;18.20;95.30;;;;;;5072079;28;20204;-72
2023/06/27 06:58:58;;;;;;;4.72;2.15;;;18.30;95.40;;;;;;5074116;28;20610;-74
2023/06/27 07:01:24;;;;;;;3.83;2.00;;;18.40;95.00;;;;;;5075992;28;20246;-73
2023/06/27 07:03:51;;;;;;;7.38;2.20;;;18.50;95.10;;;;;;5075854;28;20197;-73
2023/06/27 07:06:19;;;;;;;6.63;1.90;;;18.80;94.50;;;;;;5075801;28;20275;-74
2023/06/27 07:08:46;;;;;;;4.15;2.10;;;18.80;94.40;;;;;;5075614;28;20203;-73
2023/06/27 07:11:12;;;;;;;2.40;1.80;;;18.60;93.60;;;;;;5075774;28;20246;-74
2023/06/27 07:13:39;;;;;;;5.07;2.10;;;18.60;93.30;;;;;;5075932;28;20220;-74
2023/06/27 07:16:05;;;;;;;5.28;1.85;;;18.30;93.50;;;;;;5075807;28;20270;-74
2023/06/27 07:18:32;;;;;;;7.57;2.08;;;18.20;93.40;;;;;;5075636;28;20255;-73
2023/06/27 07:20:59;;;;;;;3.92;1.98;;;18.10;93.40;;;;;;5075568;28;20278;-73
2023/06/27 07:23:27;;;;;;;5.35;2.20;;;17.90;93.30;;;;;;5075133;28;20247;-73
2023/06/27 07:25:53;;;;;;;3.03;2.17;;;18.00;93.60;;;;;;5075150;28;20220;-72
2023/06/27 07:28:21;;;;;;;2.92;1.90;;;18.00;93.30;;;;;;5075521;28;20205;-73
2023/06/27 07:30:47;;;;;;;6.10;2.00;;;18.00;93.30;;;;;;5075410;28;20204;-74
2023/06/27 07:33:14;;;;;;;3.92;2.03;;;17.90;93.30;;;;;;5075267;28;20197;-72
2023/06/27 07:35:41;;;;;;;2.78;1.60;;;18.00;93.30;;;;;;5074951;28;20721;-72
2023/06/27 07:38:08;;;;;;;4.95;1.90;;;18.20;93.10;;;;;;5075049;28;20207;-72
2023/06/27 07:40:36;;;;;;;4.13;2.03;;;18.60;93.40;;;;;;5074858;28;20729;-72
2023/06/27 07:43:03;;;;;;;4.47;2.20;;;19.00;92.20;;;;;;5075028;28;20201;-74
2023/06/27 07:45:29;;;;;;;2.88;1.88;;;18.80;91.40;;;;;;5074817;28;20660;-74
2023/06/27 07:47:56;;;;;;;5.53;1.83;;;18.60;91.70;;;;;;5075397;28;20205;-73
2023/06/27 07:50:22;;;;;;;3.83;1.88;;;18.50;92.10;;;;;;5074462;28;20197;-74
2023/06/27 07:52:49;;;;;;;5.10;1.92;;;18.60;91.80;;;;;;5074987;28;20258;-74
2023/06/27 07:55:16;;;;;;;4.25;1.83;;;19.00;91.30;;;;;;5074889;28;20554;-75
2023/06/27 07:57:43;;;;;;;5.20;2.38;;;18.90;91.10;;;;;;5074829;28;20204;-74
2023/06/27 08:00:12;;;;;;;5.28;2.28;;;19.00;90.60;;;;;;5074816;28;20258;-77
2023/06/27 08:02:39;;;;;;;5.05;2.33;;;18.70;90.90;;;;;;5074823;28;20208;-75
2023/06/27 08:05:07;;;;;;;5.35;2.25;;;18.80;90.80;;;;;;5074660;28;20209;-73
2023/06/27 08:07:35;;;;;;;4.40;2.33;;;19.00;90.90;;;;;;5074379;28;20220;-73
2023/06/27 08:10:04;;;;;;;4.22;2.15;;;19.40;90.60;;;;;;5074176;28;20284;-72
2023/06/27 08:12:30;;;;;;;7.82;2.10;;;19.60;89.80;;;;;;5074261;28;20682;-73
2023/06/27 08:14:58;;;;;;;4.57;2.22;;;19.50;88.20;;;;;;5074532;28;20250;-73
2023/06/27 08:17:25;;;;;;;9.07;2.47;;;19.80;89.30;;;;;;5074309;28;20246;-73
2023/06/27 08:19:51;;;;;;;3.50;2.35;;;19.50;88.50;;;;;;5074178;28;20197;-72
2023/06/27 08:22:18;;;;;;;5.30;2.53;;;19.40;88.90;;;;;;5074044;28;20197;-74
2023/06/27 08:24:45;;;;;;;5.82;2.17;;;19.70;87.40;;;;;;5074270;28;20204;-74
2023/06/27 08:27:11;;;;;;;3.53;2.17;;;19.70;86.80;;;;;;5074093;28;20229;-75
2023/06/27 08:29:40;;;;;;;6.45;2.42;;;19.60;87.30;;;;;;5073903;28;20201;-74
2023/06/27 08:32:08;;;;;;;3.38;2.28;;;20.00;86.40;;;;;;5074119;28;20562;-75
2023/06/27 08:34:38;;;;;;;3.72;2.20;;;20.00;84.80;;;;;;5073831;28;20274;-74
2023/06/27 08:37:05;;;;;;;3.83;1.83;;;19.80;84.10;;;;;;5073952;28;20661;-72
2023/06/27 08:39:32;;;;;;;5.25;1.88;;;19.80;82.80;;;;;;5073757;28;20652;-72
2023/06/27 08:41:59;;;;;;;3.38;2.30;;;20.40;82.40;;;;;;5074006;28;20197;-72
2023/06/27 08:44:25;;;;;;;3.42;2.00;;;20.30;80.50;;;;;;5073510;28;20207;-72
2023/06/27 08:46:53;;;;;;;2.83;1.98;;;20.20;80.60;;;;;;5073589;28;20274;-72
2023/06/27 08:49:22;;;;;;;7.80;1.80;;;20.40;75.20;;;;;;5073590;28;20242;-72
2023/06/27 08:51:50;;;;;;;3.50;1.90;;;20.50;72.40;;;;;;5073169;28;20192;-72
2023/06/27 08:54:22;;;;;;;2.40;1.65;;;20.80;71.90;;;;;;5073439;28;20197;-72
2023/06/27 08:56:51;;;;;;;3.10;1.85;;;21.00;68.00;;;;;;5071214;28;20289;-72
2023/06/27 08:59:19;;;;;;;3.08;1.70;;;21.10;69.50;;;;;;5070821;28;20266;-72
2023/06/27 09:01:47;;;;;;;5.32;1.60;;;21.30;67.90;;;;;;5070732;28;20201;-73
2023/06/27 09:04:14;;;;;;;4.10;1.92;;;21.40;63.50;;;;;;5071196;28;20312;-70
2023/06/27 09:06:43;;;;;;;2.78;1.65;;;21.10;62.20;;;;;;5071031;28;20233;-76
2023/06/27 09:09:12;;;;;;;2.53;1.65;;;20.90;62.10;;;;;;5070540;28;20569;-72
2023/06/27 09:11:39;;;;;;;5.18;1.90;;;21.20;60.70;;;;;;5070751;28;20197;-72
2023/06/27 09:14:06;;;;;;;5.32;1.80;;;21.50;60.70;;;;;;5070428;28;20208;-73
2023/06/27 09:16:35;;;;;;;3.10;1.60;;;21.70;61.20;;;;;;5071017;28;20266;-73
2023/06/27 09:19:01;;;;;;;3.58;2.00;;;22.30;61.00;;;;;;5072854;28;20201;-72
2023/06/27 09:21:32;;;;;;;2.40;1.60;;;22.20;57.90;;;;;;5072399;28;20197;-73
2023/06/27 09:24:05;;;;;;;2.67;1.65;;;21.90;55.60;;;;;;5073113;28;20196;-72
2023/06/27 09:26:32;;;;;;;3.08;1.88;;;21.70;56.10;;;;;;5072929;28;20266;-73
2023/06/27 09:29:00;;;;;;;3.17;2.00;;;22.10;55.80;;;;;;5072903;28;20254;-73
2023/06/27 09:31:27;;;;;;;3.05;1.90;;;21.90;55.50;;;;;;5070305;28;20205;-71
2023/06/27 09:34:04;;;;;;;2.60;1.70;;;22.20;54.90;;;;;;5070540;28;20250;-71
2023/06/27 09:36:32;;;;;;;2.03;1.65;;;21.90;53.70;;;;;;5070488;28;20208;-71
2023/06/27 09:39:03;;;;;;;3.22;2.00;;;22.10;53.90;;;;;;5070414;28;20726;-72
2023/06/27 09:41:44;;;;;;;4.43;2.05;;;22.50;53.90;;;;;;5072891;28;20200;-72
2023/06/27 09:44:12;;;;;;;3.05;1.65;;;22.80;53.90;;;;;;5090592;28;20208;-71
2023/06/27 09:46:40;;;;;;;2.30;1.80;;;23.10;51.20;;;;;;5090431;28;20220;-72
2023/06/27 09:49:07;;;;;;;1.83;1.63;;;23.10;49.80;;;;;;5090612;28;20203;-71
2023/06/27 09:51:34;;;;;;;3.33;1.77;;;23.30;48.90;;;;;;5090294;28;20234;-71
2023/06/27 09:54:02;;;;;;;2.55;1.85;;;23.60;49.50;;;;;;5090137;28;20258;-72
2023/06/27 09:56:30;;;;;;;3.42;1.80;;;23.90;48.60;;;;;;5090491;28;20211;-72
2023/06/27 09:58:57;;;;;;;2.50;1.85;;;24.20;48.20;;;;;;5090403;28;20559;-72
2023/06/27 10:01:24;;;;;;;2.47;1.60;;;23.70;47.00;;;;;;5090385;28;20204;-72
2023/06/27 10:03:51;;;;;;;4.20;2.00;;;23.60;47.50;;;;;;5090265;28;20196;-72
2023/06/27 10:06:18;;;;;;;2.13;1.55;;;23.60;47.80;;;;;;5089677;28;20258;-72
2023/06/27 10:08:45;;;;;;;2.30;1.63;;;23.30;47.50;;;;;;5090494;28;20227;-73
2023/06/27 10:11:13;;;;;;;3.80;1.73;;;24.90;47.30;;;;;;5090343;28;20204;-72
2023/06/27 10:13:41;;;;;;;2.83;1.80;;;24.80;44.80;;;;;;5090216;28;20196;-73
2023/06/27 10:16:09;;;;;;;2.88;1.88;;;23.70;43.40;;;;;;5090160;28;20192;-74
2023/06/27 10:18:35;;;;;;;3.38;1.40;;;22.90;45.60;;;;;;5089829;28;20200;-73
2023/06/27 10:21:02;;;;;;;4.43;1.90;;;23.90;45.40;;;;;;5090057;28;20204;-72
2023/06/27 10:23:31;;;;;;;3.78;1.80;;;24.20;43.90;;;;;;5090316;28;20258;-73
2023/06/27 10:25:59;;;;;;;2.75;1.90;;;24.30;41.30;;;;;;5090171;28;20265;-73
2023/06/27 10:28:30;;;;;;;4.97;1.80;;;23.70;42.30;;;;;;5090112;28;20255;-73
2023/06/27 10:30:56;;;;;;;3.38;1.70;;;23.30;42.80;;;;;;5089538;28;20224;-73
2023/06/27 10:33:28;;;;;;;2.30;1.70;;;24.00;41.30;;;;;;5090974;28;20200;-73
2023/06/27 10:35:58;;;;;;;3.03;1.90;;;24.80;40.80;;;;;;5094179;28;20206;-73
2023/06/27 10:38:34;;;;;;;2.42;1.60;;;24.70;40.60;;;;;;5094205;28;20585;-72
2023/06/27 10:41:23;;;;;;;3.45;1.90;;;25.50;39.40;;;;;;5094050;28;20590;-73
2023/06/27 10:43:52;;;;;;;4.82;2.00;;;25.80;39.90;;;;;;5093363;28;20253;-73
2023/06/27 10:46:20;;;;;;;4.65;1.77;;;25.40;39.30;;;;;;5093723;28;20717;-73
2023/06/27 10:48:49;;;;;;;5.20;1.65;;;25.10;40.10;;;;;;5094000;28;20238;-72
2023/06/27 10:51:17;;;;;;;1.85;1.50;;;25.50;39.10;;;;;;5093720;28;20207;-73
2023/06/27 10:53:46;;;;;;;5.45;2.03;;;25.00;39.40;;;;;;5093266;28;20476;-73
2023/06/27 10:56:16;;;;;;;2.60;1.75;;;24.40;39.50;;;;;;5093386;28;20293;-73
2023/06/27 10:58:47;;;;;;;2.72;1.88;;;24.20;39.90;;;;;;5093888;28;20208;-73
2023/06/27 11:01:22;;;;;;;4.90;1.90;;;24.50;40.40;;;;;;5093507;28;20204;-73
2023/06/27 11:03:57;;;;;;;2.40;1.75;;;24.30;39.80;;;;;;5093524;28;20249;-73
2023/06/27 11:06:38;;;;;;;2.58;1.67;;;23.70;40.80;;;;;;5093180;28;20282;-72
2023/06/27 11:09:05;;;;;;;3.13;2.00;;;23.30;41.80;;;;;;5093377;28;20663;-72
2023/06/27 11:11:31;;;;;;;2.67;2.00;;;22.70;42.50;;;;;;5093368;28;20208;-72
2023/06/27 11:14:06;;;;;;;6.03;1.83;;;22.90;42.40;;;;;;5093104;28;20587;-71
2023/06/27 11:16:34;;;;;;;3.60;1.92;;;23.00;43.00;;;;;;5093259;28;20202;-72
2023/06/27 11:19:01;;;;;;;5.85;2.00;;;23.50;43.20;;;;;;5092726;28;20204;-72
2023/06/27 11:21:28;;;;;;;4.05;2.10;;;24.90;42.60;;;;;;5093154;28;20690;-74
2023/06/27 11:23:57;;;;;;;4.13;2.10;;;25.60;39.80;;;;;;5093073;28;20265;-73
2023/06/27 11:26:24;;;;;;;4.63;2.17;;;26.30;39.30;;;;;;5093083;28;20196;-73
2023/06/27 11:28:51;;;;;;;3.88;2.05;;;26.20;38.70;;;;;;5093528;28;20232;-73
2023/06/27 11:31:18;;;;;;;2.60;1.92;;;25.80;38.60;;;;;;5092812;28;20197;-73
2023/06/27 11:33:54;;;;;;;2.22;1.70;;;26.00;39.10;;;;;;5092819;28;20196;-73
2023/06/27 11:36:22;;;;;;;3.22;1.67;;;26.90;37.90;;;;;;5093049;28;20661;-72
2023/06/27 11:38:49;;;;;;;2.97;1.95;;;27.50;36.30;;;;;;5093005;28;20200;-72
2023/06/27 11:41:18;;;;;;;3.47;2.05;;;26.40;36.80;;;;;;5092860;28;20785;-72
2023/06/27 11:43:46;;;;;;;3.65;2.17;;;24.70;38.70;;;;;;5092360;28;20200;-72
2023/06/27 11:46:12;;;;;;;3.88;2.13;;;25.50;38.90;;;;;;5091654;28;20200;-72
2023/06/27 11:48:43;;;;;;;4.38;1.98;;;25.10;39.40;;;;;;5092564;28;20281;-72
2023/06/27 11:51:11;;;;;;;2.65;1.63;;;25.00;39.10;;;;;;5092583;28;20541;-72
2023/06/27 11:53:38;;;;;;;2.55;1.85;;;25.80;38.90;;;;;;5092576;28;20235;-73
2023/06/27 11:56:07;;;;;;;3.03;2.00;;;25.20;38.00;;;;;;5091851;28;20258;-70
2023/06/27 11:58:37;;;;;;;3.58;1.77;;;24.80;38.30;;;;;;5093925;28;20768;-71
2023/06/27 12:01:11;;;;;;;4.22;1.95;;;24.70;38.60;;;;;;5094865;28;20600;-70
2023/06/27 12:03:38;;;;;;;2.50;1.90;;;24.90;39.30;;;;;;5094771;28;20573;-70
2023/06/27 12:06:05;;;;;;;4.82;1.88;;;24.00;40.20;;;;;;5094699;28;20192;-71
2023/06/27 12:08:34;;;;;;;2.20;1.85;;;24.40;39.70;;;;;;5094662;28;20672;-75
2023/06/27 12:11:03;;;;;;;5.43;2.08;;;24.20;39.50;;;;;;5094620;28;20602;-72
2023/06/27 12:13:34;;;;;;;4.60;2.10;;;23.90;39.70;;;;;;5094490;28;20196;-70
2023/06/27 12:16:00;;;;;;;2.85;1.80;;;24.30;39.80;;;;;;5094590;28;20648;-75
2023/06/27 12:18:28;;;;;;;3.75;2.10;;;24.10;39.90;;;;;;5074439;28;20250;-70
2023/06/27 12:20:56;;;;;;;2.45;1.90;;;24.60;39.90;;;;;;5074295;28;20201;-73
2023/06/27 12:23:23;;;;;;;4.63;1.92;;;25.50;38.80;;;;;;5074433;28;20201;-73
2023/06/27 12:25:51;;;;;;;4.53;2.00;;;25.20;37.90;;;;;;5073993;28;20203;-73
2023/06/27 12:28:19;;;;;;;4.03;2.13;;;24.80;38.20;;;;;;5074161;28;20584;-73
2023/06/27 12:30:45;;;;;;;2.90;2.08;;;25.60;37.10;;;;;;5074101;28;20208;-73
2023/06/27 12:33:12;;;;;;;4.10;2.00;;;24.90;37.10;;;;;;5073965;28;20530;-72
2023/06/27 12:35:39;;;;;;;4.10;2.38;;;25.00;38.40;;;;;;5073910;28;20250;-75
2023/06/27 12:38:06;;;;;;;2.28;1.95;;;25.20;38.70;;;;;;5074007;28;20228;-74
2023/06/27 12:40:33;;;;;;;3.10;1.80;;;25.60;38.20;;;;;;5073602;28;20672;-74
2023/06/27 12:43:03;;;;;;;3.13;1.90;;;25.10;38.30;;;;;;5074032;28;20258;-74
2023/06/27 12:45:32;;;;;;;3.25;1.80;;;24.90;38.40;;;;;;5074094;28;20225;-74
2023/06/27 12:47:58;;;;;;;4.28;1.90;;;25.60;37.50;;;;;;5073621;28;20303;-73